Flight Track Log - Related Links

Times and Time Zones

All times are in EDT time to prevent confusion due to time zone crossing. See the UAL4536 flight status page for this flight to view local times or setup timezone preferences in your user account.

Time Position Orientation Groundspeed Altitude Reporting Facility
EDT Latitude Longitude Course Direction KTS MPH feet Rate Location/Type
Wed 20:41:58 40.6667 -74.1833 237° Southwest 166 191 2,200  Level New York TRACON
Wed 20:43:04 40.6333 -74.2500 237° Southwest 236 272 4,400 2,381 Climbing New York TRACON
Wed 20:44:04 40.6500 -74.3333 285° West 283 326 7,200 2,286 Climbing New York TRACON
Wed 20:45:52 40.6683 -74.5331 277° West 312 359 10,800 1,821 Climbing New York Center
Wed 20:46:52 40.6728 -74.6508 273° West 347 399 12,300 1,820 Climbing New York Center
Wed 20:47:54 40.6761 -74.7989 272° West 365 420 14,500 2,100 Climbing New York Center
Wed 20:48:52 40.6800 -74.9278 272° West 365 420 16,500 1,780 Climbing New York Center
Wed 20:49:52 40.6819 -75.0483 271° West 365 420 18,000 1,770 Climbing New York Center
Wed 20:50:54 40.6356 -75.1819 245° Southwest 355 409 20,100 2,066 Climbing New York Center
Wed 20:51:54 40.5808 -75.3014 239° Southwest 366 421 22,200 2,085 Climbing New York Center
Wed 20:52:52 40.5261 -75.4208 239° Southwest 379 436 24,200 1,780 Climbing New York Center
Wed 20:53:52 40.4736 -75.5400 240° Southwest 391 450 25,700 1,488 Climbing New York Center
Wed 20:54:53 40.4183 -75.6644 240° Southwest 391 450 27,200 1,426 Climbing New York Center
Wed 20:55:54 40.3592 -75.7883 238° Southwest 391 450 28,600 1,289 Climbing New York Center
Wed 20:56:54 40.3111 -75.8881 238° Southwest 402 463 29,800 1,339 Climbing New York Center
Wed 20:57:55 40.2422 -76.0300 238° Southwest 409 471 31,300 1,525 Climbing New York Center
Wed 20:58:52 40.1803 -76.1556 237° Southwest 414 476 32,800 1,529 Climbing New York Center
Wed 21:00:28 40.0861 -76.3725 240° Southwest 400 460 35,200 1,239 Climbing Washington Center
Wed 21:01:27 40.0269 -76.5017 239° Southwest 405 466 36,000 400 Climbing Washington Center
Wed 21:02:28 39.9656 -76.6256 237° Southwest 428 493 36,000  Level Washington Center
Wed 21:03:26 39.8933 -76.7758 238° Southwest 449 517 36,000  Level Washington Center
Wed 21:04:26 39.8272 -76.9125 238° Southwest 449 517 36,000  Level Washington Center
Wed 21:05:27 39.7653 -77.0464 239° Southwest 449 517 36,000  Level Washington Center
Wed 21:06:28 39.7033 -77.1800 239° Southwest 449 517 36,000  Level Washington Center
Wed 21:07:26 39.6389 -77.3133 238° Southwest 449 517 36,000  Level Washington Center
Wed 21:08:26 39.5764 -77.4467 239° Southwest 444 511 36,000  Level Washington Center
Wed 21:09:28 39.5139 -77.5794 239° Southwest 444 511 36,000  Level Washington Center
Wed 21:10:26 39.4533 -77.7067 238° Southwest 439 505 36,000  Level Washington Center
Wed 21:11:26 39.3928 -77.8339 238° Southwest 428 493 36,000  Level Washington Center
Wed 21:12:27 39.3381 -77.9692 242° Southwest 428 493 36,000  Level Washington Center
Wed 21:13:28 39.2831 -78.1067 243° Southwest 423 487 36,000  Level Washington Center
Wed 21:14:26 39.2281 -78.2442 243° Southwest 428 493 36,000  Level Washington Center
Wed 21:15:27 39.1914 -78.3928 252° West 433 498 36,000  Level Washington Center
Wed 21:16:27 39.1628 -78.5417 256° West 433 498 36,000  Level Washington Center
Wed 21:17:28 39.1319 -78.6875 255° West 433 498 36,000  Level Washington Center
Wed 21:18:28 39.1033 -78.8308 256° West 433 498 36,000  Level Washington Center
Wed 21:19:28 39.0722 -78.9764 255° West 433 498 36,000  Level Washington Center
Wed 21:20:26 39.0408 -79.1219 255° West 433 498 36,000  Level Washington Center
Wed 21:21:26 39.0094 -79.2675 255° West 433 498 36,000  Level Washington Center
Wed 21:22:27 38.9825 -79.3997 255° West 433 498 36,000  Level Washington Center
Wed 21:23:26 38.9506 -79.5422 254° West 427 491 36,000 -350 Level Washington Center
Wed 21:24:27 38.9161 -79.7058 255° West 433 498 35,300 -492 Descending Washington Center
Wed 21:25:28 38.8839 -79.8506 254° West 433 498 35,000 -109 Descending Washington Center
Wed 21:27:12 38.8303 -80.0708 253° West 413 475 35,000  Level Indianapolis Center
Wed 21:28:14 38.8150 -80.2428 264° West 404 465 35,000  Level Indianapolis Center
Wed 21:29:15 38.8119 -80.3842 268° West 399 459 35,000  Level Indianapolis Center
Wed 21:30:16 38.8083 -80.5256 268° West 397 457 35,000  Level Indianapolis Center
Wed 21:31:18 38.8022 -80.6672 267° West 398 458 35,000  Level Indianapolis Center
Wed 21:32:19 38.7828 -80.8092 260° West 405 466 35,000  Level Indianapolis Center
Wed 21:33:20 38.7608 -80.9500 259° West 403 464 35,000  Level Indianapolis Center
Wed 21:34:22 38.7397 -81.0922 259° West 405 466 35,000  Level Indianapolis Center
Wed 21:35:23 38.7189 -81.2333 259° West 403 464 35,000  Level Indianapolis Center
Wed 21:36:24 38.6975 -81.3753 259° West 405 466 35,000 -341 Level Indianapolis Center
Wed 21:37:26 38.6756 -81.5242 259° West 408 470 34,300 -976 Descending Indianapolis Center
Wed 21:38:27 38.6508 -81.6894 259° West 407 468 33,000 -1,082 Descending Indianapolis Center
Wed 21:39:28 38.6314 -81.8167 259° West 407 468 32,100 -934 Descending Indianapolis Center
Wed 21:40:29 38.6092 -81.9603 259° West 412 474 31,100 -1,024 Descending Indianapolis Center
Wed 21:41:31 38.5856 -82.1094 259° West 426 490 30,000 -1,024 Descending Indianapolis Center
Wed 21:42:32 38.5608 -82.2647 259° West 442 509 29,000 -984 Descending Indianapolis Center
Wed 21:43:33 38.5356 -82.4219 258° West 448 516 28,000 -1,082 Descending Indianapolis Center
Wed 21:44:34 38.5083 -82.5972 259° West 454 522 26,800 -1,082 Descending Indianapolis Center
Wed 21:45:35 38.4825 -82.7572 258° West 458 527 25,800 -976 Descending Indianapolis Center
Wed 21:46:37 38.4567 -82.9175 258° West 461 531 24,800 -878 Descending Indianapolis Center
Wed 21:47:38 38.4392 -83.1056 263° West 462 532 24,000 -1,131 Descending Indianapolis Center
Wed 21:48:39 38.4700 -83.2594 284° West 452 520 22,500 -2,459 Descending Indianapolis Center
Wed 21:49:40 38.5022 -83.4028 286° West 427 491 19,000 -3,197 Descending Indianapolis Center
Wed 21:50:41 38.5306 -83.5408 285° West 407 468 16,000 -2,488 Descending Indianapolis Center
Wed 21:51:43 38.5600 -83.6733 286° West 390 449 13,900 -2,244 Descending Indianapolis Center
Wed 21:52:44 38.5869 -83.7992 285° West 373 429 11,400 -1,918 Descending Indianapolis Center
Wed 21:53:45 38.6139 -83.9200 286° West 357 411 10,000 -738 Descending Indianapolis Center
Wed 21:54:46 38.6589 -84.0472 294° West 363 418 9,900 -836 Descending Indianapolis Center
Wed 21:55:47 38.6931 -84.1464 294° West 307 353 8,300 -1,574 Descending Indianapolis Center
Wed 21:56:48 38.7250 -84.2425 293° West 293 337 6,700 -1,512 Descending Indianapolis Center
Wed 21:57:50 38.7561 -84.3300 295° West 275 316 5,200 -878 Descending Indianapolis Center
Wed 21:58:51 38.7872 -84.4178 294° West 270 311 4,900 -148 Descending Indianapolis Center
Wed 21:59:52 38.8181 -84.5092 293° West 274 315 4,900 49 Level Indianapolis Center
Wed 22:00:53 38.8483 -84.5986 294° West 284 327 5,000 -415 Climbing Indianapolis Center
Wed 22:02:02 38.9000 -84.6667 314° West 203 234 4,000 -870 Descending Cincinnati TRACON

Login

Don't have an account? Register now (free) for customized features, flight alerts, and more!